createdAt,value
2023-03-21T00:00:05.720Z,100002.78
2023-03-21T00:02:33.600Z,100001.50
2023-03-21T00:05:13.258Z,99999.16
2023-03-21T00:07:44.367Z,99994.72
2023-03-21T00:10:18.129Z,99990.06
2023-03-21T00:12:50.445Z,99990.38
2023-03-21T00:15:20.550Z,99983.59
2023-03-21T00:17:50.669Z,99983.44
2023-03-21T00:20:18.608Z,99980.72
2023-03-21T00:22:47.628Z,99987.47
2023-03-21T00:25:15.367Z,99981.50
2023-03-21T00:28:00.961Z,99975.72
2023-03-21T00:30:30.769Z,99976.34
2023-03-21T00:33:01.546Z,99980.97
2023-03-21T00:38:21.152Z,99965.09
2023-03-21T00:40:49.426Z,99961.47
2023-03-21T00:43:19.407Z,99966.19
2023-03-21T00:45:47.845Z,99962.38
2023-03-21T00:48:16.116Z,99956.56
2023-03-21T00:50:46.957Z,99953.75
2023-03-21T00:53:15.754Z,99959.03
2023-03-21T00:55:44.759Z,99954.34
2023-03-21T00:58:12.895Z,99954.19
2023-03-21T01:00:41.281Z,99941.50
2023-03-21T01:03:23.773Z,99949.31
2023-03-21T01:06:07.046Z,99943.34
2023-03-21T01:08:51.298Z,99933.28
2023-03-21T01:11:23.307Z,99939.97
2023-03-21T01:13:55.990Z,99933.06
2023-03-21T01:16:28.337Z,99927.81
2023-03-21T01:18:56.410Z,99924.00
2023-03-21T01:21:24.263Z,99926.97
2023-03-21T01:23:52.151Z,99929.19
2023-03-21T01:26:21.421Z,99922.16
2023-03-21T01:28:49.148Z,99931.09
2023-03-21T01:31:18.662Z,99928.28
2023-03-21T01:33:46.382Z,99929.47
2023-03-21T01:36:19.240Z,99925.47
2023-03-21T01:38:48.469Z,99928.59
2023-03-21T01:41:33.523Z,99925.97
2023-03-21T01:44:05.331Z,99930.50
2023-03-21T01:46:51.491Z,99920.00
2023-03-21T01:49:26.115Z,99926.63
2023-03-21T01:52:06.578Z,99918.66
2023-03-21T01:54:41.471Z,99924.94
2023-03-21T01:57:13.172Z,99915.88
2023-03-21T01:59:43.805Z,99908.13
2023-03-21T02:02:17.837Z,99911.59
2023-03-21T02:04:56.043Z,99908.09
2023-03-21T02:07:29.236Z,99904.25
2023-03-21T02:09:57.421Z,99904.25
2023-03-21T02:12:27.477Z,99900.88
2023-03-21T02:14:56.580Z,99893.44
2023-03-21T02:17:32.046Z,99895.91
2023-03-21T02:20:29.758Z,99892.56
2023-03-21T02:23:20.965Z,99892.97
2023-03-21T02:26:28.450Z,99898.81
2023-03-21T02:29:09.360Z,99897.28
2023-03-21T02:31:43.899Z,99895.91
2023-03-21T02:34:42.180Z,99893.31
2023-03-21T02:37:28.952Z,99888.91
2023-03-21T02:40:11.108Z,99894.00
2023-03-21T02:43:00.069Z,99892.94
2023-03-21T02:45:35.992Z,99886.06
2023-03-21T02:48:12.157Z,99889.34
2023-03-21T02:50:49.371Z,99890.69
2023-03-21T02:53:22.334Z,99886.50
2023-03-21T02:56:15.695Z,99879.44
2023-03-21T02:58:44.378Z,99886.22
2023-03-21T03:01:12.428Z,99880.88
2023-03-21T03:03:40.051Z,99864.94
2023-03-21T03:06:18.091Z,99871.31
2023-03-21T03:09:11.312Z,99864.56
2023-03-21T03:11:42.345Z,99867.41
2023-03-21T03:14:44.211Z,99872.47
2023-03-21T03:17:31.470Z,99871.63
2023-03-21T03:20:16.658Z,99873.28
2023-03-21T03:22:51.843Z,99861.25
2023-03-21T03:25:39.891Z,99867.34
2023-03-21T03:28:12.265Z,99867.38
2023-03-21T03:30:48.874Z,99868.69
2023-03-21T03:33:27.037Z,99865.41
2023-03-21T03:36:04.956Z,99873.84
2023-03-21T03:38:37.136Z,99867.03
2023-03-21T03:41:11.698Z,99866.97
2023-03-21T03:43:44.367Z,99864.28
2023-03-21T03:46:17.389Z,99869.31
2023-03-21T03:48:50.184Z,99874.13
2023-03-21T03:51:24.566Z,99874.41
2023-03-21T03:53:56.786Z,99866.09
2023-03-21T03:56:27.072Z,99875.09
2023-03-21T03:58:54.941Z,99868.63
2023-03-21T04:01:22.661Z,99871.50
2023-03-21T04:03:56.442Z,99869.38
2023-03-21T04:06:32.581Z,99866.00
2023-03-21T04:09:03.495Z,99864.78
2023-03-21T04:11:34.744Z,99869.97
2023-03-21T04:14:02.544Z,99874.13
2023-03-21T04:16:32.820Z,99869.69
2023-03-21T04:19:02.178Z,99874.97
2023-03-21T04:21:30.053Z,99877.88
2023-03-21T04:23:57.693Z,99870.75
2023-03-21T04:26:32.866Z,99865.78
2023-03-21T04:29:02.980Z,99871.13
2023-03-21T04:31:33.836Z,99867.16
2023-03-21T04:34:03.854Z,99871.88
2023-03-21T04:36:38.675Z,99867.16
2023-03-21T04:39:12.262Z,99863.31
2023-03-21T04:41:40.842Z,99865.78
2023-03-21T04:44:11.757Z,99864.50
2023-03-21T04:46:39.899Z,99856.19
2023-03-21T04:49:08.394Z,99868.34
2023-03-21T04:51:36.638Z,99861.47
2023-03-21T04:54:05.748Z,99858.41
2023-03-21T04:56:34.349Z,99856.28
2023-03-21T04:59:06.289Z,99862.63
2023-03-21T05:01:35.369Z,99853.66
2023-03-21T05:04:04.295Z,99852.59
2023-03-21T05:06:32.215Z,99846.81
2023-03-21T05:09:05.523Z,99841.91
2023-03-21T05:11:35.898Z,99845.66
2023-03-21T05:14:03.635Z,99829.94
2023-03-21T05:16:31.414Z,99830.00
2023-03-21T05:19:04.095Z,99830.16
2023-03-21T05:21:34.183Z,99836.25
2023-03-21T05:24:03.627Z,99827.75
2023-03-21T05:26:31.495Z,99830.47
2023-03-21T05:28:59.253Z,99828.94
2023-03-21T05:31:27.050Z,99827.03
2023-03-21T05:33:54.824Z,99824.19
2023-03-21T05:36:23.896Z,99819.59
2023-03-21T05:38:51.584Z,99821.00
2023-03-21T05:41:21.459Z,99823.34
2023-03-21T05:43:49.121Z,99828.53
2023-03-21T05:46:16.971Z,99839.91
2023-03-21T05:48:44.726Z,99825.59
2023-03-21T05:51:12.375Z,99841.03
2023-03-21T05:53:41.713Z,99836.69
2023-03-21T05:56:10.674Z,99824.91
2023-03-21T05:58:38.563Z,99825.41
2023-03-21T06:01:07.065Z,99833.09
2023-03-21T06:03:34.811Z,99836.97
2023-03-21T06:06:03.423Z,99837.19
2023-03-21T06:08:31.752Z,99843.56
2023-03-21T06:11:00.901Z,99840.47
2023-03-21T06:13:28.637Z,99840.69
2023-03-21T06:15:56.572Z,99844.72
2023-03-21T06:18:24.286Z,99834.88
2023-03-21T06:20:51.966Z,99834.06
2023-03-21T06:23:19.758Z,99832.84
2023-03-21T06:25:49.242Z,99832.41
2023-03-21T06:28:18.352Z,99826.47
2023-03-21T06:30:46.053Z,99838.66
2023-03-21T06:33:13.778Z,99843.59
2023-03-21T06:35:41.666Z,99845.25
2023-03-21T06:38:09.552Z,99844.97
2023-03-21T06:40:39.112Z,99835.59
2023-03-21T06:43:06.794Z,99835.94
2023-03-21T06:45:36.264Z,99841.38
2023-03-21T06:48:04.170Z,99840.25
2023-03-21T06:50:31.953Z,99834.28
2023-03-21T06:53:00.025Z,99841.72
2023-03-21T06:55:28.921Z,99833.13
2023-03-21T06:57:57.510Z,99832.31
2023-03-21T07:00:27.322Z,99836.13
2023-03-21T07:02:56.566Z,99834.81
2023-03-21T07:05:24.545Z,99842.25
2023-03-21T07:07:52.361Z,99839.13
2023-03-21T07:10:20.388Z,99852.06
2023-03-21T07:12:48.208Z,99846.75
2023-03-21T07:15:16.356Z,99847.59
2023-03-21T07:17:44.070Z,99851.59
2023-03-21T07:20:14.263Z,99841.47
2023-03-21T07:22:42.337Z,99839.94
2023-03-21T07:25:11.387Z,99831.13
2023-03-21T07:27:40.879Z,99840.16
2023-03-21T07:30:11.776Z,99837.41
2023-03-21T07:32:40.207Z,99830.94
2023-03-21T07:35:11.331Z,99834.91
2023-03-21T07:37:41.390Z,99829.50
2023-03-21T07:40:12.395Z,99831.66
2023-03-21T07:42:41.339Z,99827.38
2023-03-21T07:45:11.239Z,99834.06
2023-03-21T07:47:38.975Z,99828.03
2023-03-21T07:50:07.602Z,99828.00
2023-03-21T07:52:35.765Z,99820.19
2023-03-21T07:55:05.662Z,99832.06
2023-03-21T07:57:33.771Z,99831.69
2023-03-21T08:00:01.506Z,99830.31
2023-03-21T08:02:29.355Z,99823.66
2023-03-21T08:04:57.450Z,99822.53
2023-03-21T08:07:27.180Z,99822.38
2023-03-21T08:09:54.938Z,99816.59
2023-03-21T08:12:24.074Z,99825.16
2023-03-21T08:14:52.021Z,99830.75
2023-03-21T08:17:19.722Z,99819.94
2023-03-21T08:19:47.347Z,99821.78
2023-03-21T08:22:15.093Z,99814.69
2023-03-21T08:24:43.117Z,99818.38
2023-03-21T08:27:10.897Z,99832.19
2023-03-21T08:29:42.266Z,99830.78
2023-03-21T08:32:11.115Z,99834.50
2023-03-21T08:34:38.820Z,99827.66
2023-03-21T08:37:07.076Z,99835.59
2023-03-21T08:39:34.916Z,99836.59
2023-03-21T08:42:02.535Z,99837.88
2023-03-21T08:44:30.267Z,99832.94
2023-03-21T08:46:59.197Z,99835.19
2023-03-21T08:49:27.392Z,99832.81
2023-03-21T08:51:57.078Z,99830.25
2023-03-21T08:54:25.164Z,99830.97
2023-03-21T08:56:52.899Z,99827.56
2023-03-21T08:59:20.795Z,99834.59
2023-03-21T09:01:48.786Z,99829.00
2023-03-21T09:04:19.160Z,99829.03
2023-03-21T09:06:48.842Z,99825.25
2023-03-21T09:09:16.773Z,99824.25
2023-03-21T09:11:45.067Z,99819.56
2023-03-21T09:14:13.047Z,99817.44
2023-03-21T09:16:41.300Z,99816.66
2023-03-21T09:19:09.683Z,99822.59
2023-03-21T09:21:39.226Z,99815.91
2023-03-21T09:24:08.006Z,99829.75
2023-03-21T09:26:36.012Z,99828.34
2023-03-21T09:29:04.980Z,99819.88
2023-03-21T09:31:32.898Z,99815.56
2023-03-21T09:34:01.166Z,99827.78
2023-03-21T09:36:35.007Z,99825.75
2023-03-21T09:39:05.039Z,99824.28
2023-03-21T09:41:47.837Z,99819.28
2023-03-21T09:44:37.527Z,99822.25
2023-03-21T09:47:17.205Z,99820.16
2023-03-21T09:49:51.897Z,99823.31
2023-03-21T09:52:26.178Z,99820.09
2023-03-21T09:54:55.765Z,99819.78
2023-03-21T09:57:33.006Z,99826.50
2023-03-21T10:00:09.479Z,99818.34
2023-03-21T10:02:40.210Z,99827.31
2023-03-21T10:05:17.653Z,99823.16
2023-03-21T10:07:51.412Z,99815.13
2023-03-21T10:10:24.720Z,99824.78
2023-03-21T10:12:55.192Z,99823.34
2023-03-21T10:15:25.578Z,99811.28
2023-03-21T10:17:59.305Z,99814.22
2023-03-21T10:20:31.682Z,99818.72
2023-03-21T10:23:02.301Z,99816.47
2023-03-21T10:25:35.187Z,99813.94
2023-03-21T10:28:04.722Z,99808.53
2023-03-21T10:30:41.245Z,99811.38
2023-03-21T10:33:14.507Z,99806.28
2023-03-21T10:35:46.369Z,99804.22
2023-03-21T10:38:17.531Z,99798.00
2023-03-21T10:40:47.242Z,99800.13
2023-03-21T10:43:30.982Z,99793.38
2023-03-21T10:45:59.212Z,99794.66
2023-03-21T10:48:27.069Z,99799.44
2023-03-21T10:50:56.434Z,99786.94
2023-03-21T10:53:30.777Z,99789.59
2023-03-21T10:56:01.756Z,99783.47
2023-03-21T10:58:33.306Z,99787.50
2023-03-21T11:01:04.764Z,99784.63
2023-03-21T11:03:34.868Z,99782.38
2023-03-21T11:06:08.597Z,99779.03
2023-03-21T11:08:41.582Z,99771.25
2023-03-21T11:11:15.451Z,99774.28
2023-03-21T11:13:45.240Z,99772.75
2023-03-21T11:16:19.954Z,99771.13
2023-03-21T11:18:53.227Z,99768.25
2023-03-21T11:21:29.598Z,99766.38
2023-03-21T11:23:58.361Z,99766.59
2023-03-21T11:26:32.303Z,99765.19
2023-03-21T11:29:00.763Z,99765.00
2023-03-21T11:31:39.711Z,99762.56
2023-03-21T11:34:09.737Z,99751.19
2023-03-21T11:36:39.726Z,99753.84
2023-03-21T11:39:31.345Z,99755.88
2023-03-21T11:42:01.394Z,99753.03
2023-03-21T11:44:32.420Z,99744.00
2023-03-21T11:47:00.907Z,99750.22
2023-03-21T11:49:29.404Z,99745.25
2023-03-21T11:52:13.442Z,99739.38
2023-03-21T11:54:57.334Z,99741.25
2023-03-21T11:57:38.250Z,99731.38
2023-03-21T12:00:17.759Z,99725.22
2023-03-21T12:03:23.880Z,99726.66
2023-03-21T12:05:56.109Z,99718.84
2023-03-21T12:08:35.733Z,99721.03
2023-03-21T12:11:13.620Z,99713.88
2023-03-21T12:13:53.152Z,99713.25
2023-03-21T12:16:29.515Z,99709.19
2023-03-21T12:19:09.630Z,99703.41
2023-03-21T12:21:46.976Z,99699.84
2023-03-21T12:24:21.890Z,99697.72
2023-03-21T12:26:59.298Z,99689.34
2023-03-21T12:29:52.228Z,99690.16
2023-03-21T12:32:35.608Z,99696.75
2023-03-21T12:35:17.343Z,99686.19
2023-03-21T12:37:57.390Z,99674.25
2023-03-21T12:40:40.012Z,99671.16
2023-03-21T12:43:26.473Z,99669.09
2023-03-21T12:46:00.195Z,99666.16
2023-03-21T12:48:39.035Z,99660.84
2023-03-21T12:51:12.657Z,99656.72
2023-03-21T12:53:51.286Z,99660.66
2023-03-21T12:56:23.832Z,99651.78
2023-03-21T12:58:57.054Z,99648.81
2023-03-21T13:01:27.320Z,99649.47
2023-03-21T13:04:09.389Z,99647.34
2023-03-21T13:06:40.531Z,99645.72
2023-03-21T13:09:14.489Z,99648.81
2023-03-21T13:11:43.296Z,99653.13
2023-03-21T13:14:16.850Z,99654.56
2023-03-21T13:16:50.800Z,99656.63
2023-03-21T13:19:28.076Z,99650.03
2023-03-21T13:22:01.922Z,99646.56
2023-03-21T13:24:34.794Z,99652.72
2023-03-21T13:27:06.943Z,99652.13
2023-03-21T13:29:44.298Z,99655.56
2023-03-21T13:32:19.921Z,99650.69
2023-03-21T13:34:55.662Z,99647.19
2023-03-21T13:37:26.363Z,99645.94
2023-03-21T13:39:54.288Z,99650.03
2023-03-21T13:42:25.332Z,99650.84
2023-03-21T13:44:56.380Z,99652.41
2023-03-21T13:47:41.994Z,99636.06
2023-03-21T13:50:28.465Z,99635.25
2023-03-21T13:53:31.676Z,99633.16
2023-03-21T13:56:25.349Z,99632.19
2023-03-21T13:58:56.135Z,99635.19
2023-03-21T14:01:35.550Z,99628.91
2023-03-21T14:04:16.026Z,99631.63
2023-03-21T14:06:48.054Z,99629.69
2023-03-21T14:09:22.596Z,99627.19
2023-03-21T14:11:54.667Z,99628.00
2023-03-21T14:14:28.136Z,99625.47
2023-03-21T14:16:55.946Z,99637.97
2023-03-21T14:19:33.341Z,99639.78
2023-03-21T14:22:01.074Z,99631.28
2023-03-21T14:24:28.921Z,99626.94
2023-03-21T14:26:57.046Z,99635.44
2023-03-21T14:29:27.336Z,99631.47
2023-03-21T14:31:56.542Z,99622.34
2023-03-21T14:34:27.618Z,99600.75
2023-03-21T14:36:59.132Z,99600.19
2023-03-21T14:39:30.743Z,99592.09
2023-03-21T14:42:04.068Z,99582.41
2023-03-21T14:44:44.143Z,99562.66
2023-03-21T14:47:20.481Z,99549.00
2023-03-21T14:49:50.603Z,99559.00
2023-03-21T14:52:24.867Z,99566.50
2023-03-21T14:54:53.746Z,99567.94
2023-03-21T14:57:25.089Z,99563.63
2023-03-21T14:59:56.132Z,99584.25
2023-03-21T15:02:28.321Z,99583.28
2023-03-21T15:04:58.698Z,99591.00
2023-03-21T15:07:30.549Z,99587.94
2023-03-21T15:10:03.611Z,99583.00
2023-03-21T15:12:31.454Z,99578.50
2023-03-21T15:15:01.338Z,99574.56
2023-03-21T15:17:30.655Z,99572.31
2023-03-21T15:19:58.534Z,99578.00
2023-03-21T15:22:33.463Z,99568.22
2023-03-21T15:25:05.909Z,99565.84
2023-03-21T15:27:35.978Z,99551.22
2023-03-21T15:30:03.896Z,99537.34
2023-03-21T15:32:31.623Z,99536.81
2023-03-21T15:35:07.504Z,99529.25
2023-03-21T15:37:38.924Z,99531.16
2023-03-21T15:40:17.871Z,99532.59
2023-03-21T15:42:46.033Z,99528.34
2023-03-21T15:45:22.496Z,99522.63
2023-03-21T15:47:55.997Z,99514.34
2023-03-21T15:50:29.329Z,99519.16
2023-03-21T15:53:01.760Z,99517.75
2023-03-21T15:55:36.023Z,99525.47
2023-03-21T15:58:07.249Z,99525.53
2023-03-21T16:00:40.845Z,99527.56
2023-03-21T16:03:16.862Z,99532.41
2023-03-21T16:06:03.552Z,99530.63
2023-03-21T16:08:36.393Z,99536.81
2023-03-21T16:11:09.213Z,99543.06
2023-03-21T16:13:37.252Z,99537.69
2023-03-21T16:16:05.329Z,99539.84
2023-03-21T16:18:33.288Z,99544.16
2023-03-21T16:21:01.007Z,99548.78
2023-03-21T16:23:28.768Z,99553.19
2023-03-21T16:25:58.935Z,99556.16
2023-03-21T16:28:26.598Z,99563.38
2023-03-21T16:30:54.234Z,99560.63
2023-03-21T16:33:21.884Z,99562.41
2023-03-21T16:35:49.699Z,99556.66
2023-03-21T16:38:17.481Z,99552.19
2023-03-21T16:40:45.403Z,99548.94
2023-03-21T16:43:14.369Z,99545.22
2023-03-21T16:45:42.554Z,99548.41
2023-03-21T16:48:16.418Z,99548.63
2023-03-21T16:50:48.039Z,99539.53
2023-03-21T16:53:17.121Z,99542.75
2023-03-21T16:55:44.968Z,99548.31
2023-03-21T16:58:16.513Z,99548.06
2023-03-21T17:00:44.609Z,99550.63
2023-03-21T17:03:18.096Z,99543.69
2023-03-21T17:05:46.456Z,99541.81
2023-03-21T17:08:18.679Z,99541.63
2023-03-21T17:10:47.381Z,99550.63
2023-03-21T17:13:16.427Z,99553.03
2023-03-21T17:15:44.135Z,99542.00
2023-03-21T17:18:12.931Z,99555.03
2023-03-21T17:20:41.923Z,99555.34
2023-03-21T17:23:10.330Z,99560.47
2023-03-21T17:25:38.155Z,99551.50
2023-03-21T17:28:05.938Z,99555.75
2023-03-21T17:30:39.144Z,99546.44
2023-03-21T17:33:07.544Z,99548.47
2023-03-21T17:35:35.230Z,99548.38
2023-03-21T17:38:03.093Z,99546.72
2023-03-21T17:40:32.699Z,99535.81
2023-03-21T17:43:01.274Z,99534.31
2023-03-21T17:45:29.802Z,99544.94
2023-03-21T17:47:58.935Z,99546.53
2023-03-21T17:50:34.011Z,99555.03
2023-03-21T17:53:01.688Z,99551.78
2023-03-21T17:55:29.626Z,99541.22
2023-03-21T17:57:57.432Z,99539.28
2023-03-21T18:00:28.122Z,99535.50
2023-03-21T18:02:56.198Z,99537.22
2023-03-21T18:05:26.500Z,99536.13
2023-03-21T18:08:12.781Z,99526.59
2023-03-21T18:10:41.938Z,99534.78
2023-03-21T18:13:09.842Z,99535.88
2023-03-21T18:15:38.397Z,99543.38
2023-03-21T18:18:06.688Z,99552.75
2023-03-21T18:20:51.089Z,99557.88
2023-03-21T18:23:19.823Z,99557.69
2023-03-21T18:25:47.847Z,99561.31
2023-03-21T18:28:20.364Z,99565.44
2023-03-21T18:31:07.353Z,99561.91
2023-03-21T18:33:37.724Z,99565.03
2023-03-21T18:36:08.169Z,99561.19
2023-03-21T18:38:37.053Z,99554.78
2023-03-21T18:41:05.202Z,99555.13
2023-03-21T18:46:21.076Z,99568.75
2023-03-21T18:48:49.281Z,99566.72
2023-03-21T18:51:19.260Z,99565.16
2023-03-21T18:53:47.573Z,99565.97
2023-03-21T18:56:57.703Z,99566.03
2023-03-21T18:59:03.597Z,99559.88
2023-03-21T19:01:32.489Z,99570.75
2023-03-21T19:04:20.007Z,99569.81
2023-03-21T19:06:51.407Z,99574.63
2023-03-21T19:09:19.291Z,99570.13
2023-03-21T19:11:47.235Z,99562.69
2023-03-21T19:14:16.959Z,99564.09
2023-03-21T19:17:26.448Z,99572.50
2023-03-21T19:19:33.718Z,99573.63
2023-03-21T19:22:02.916Z,99574.03
2023-03-21T19:24:31.274Z,99572.53
2023-03-21T19:26:59.146Z,99573.38
2023-03-21T19:29:27.016Z,99586.28
2023-03-21T19:31:55.126Z,99579.34
2023-03-21T19:34:22.979Z,99585.25
2023-03-21T19:36:52.333Z,99579.81
2023-03-21T19:39:22.843Z,99572.94
2023-03-21T19:41:51.178Z,99566.28
2023-03-21T19:44:19.735Z,99572.09
2023-03-21T19:46:48.535Z,99565.00
2023-03-21T19:49:22.147Z,99563.81
2023-03-21T19:51:51.276Z,99563.31
2023-03-21T19:54:19.328Z,99570.22
2023-03-21T19:56:49.401Z,99574.69
2023-03-21T19:59:17.817Z,99576.88
2023-03-21T20:01:46.117Z,99573.59
2023-03-21T20:04:14.894Z,99576.09
2023-03-21T20:06:42.892Z,99584.63
2023-03-21T20:09:49.211Z,99578.22
2023-03-21T20:12:02.516Z,99583.81
2023-03-21T20:14:30.529Z,99575.88
2023-03-21T20:16:58.517Z,99571.50
2023-03-21T20:19:27.286Z,99577.59
2023-03-21T20:21:59.818Z,99574.81
2023-03-21T20:24:30.439Z,99579.22
2023-03-21T20:27:00.733Z,99578.94
2023-03-21T20:30:07.691Z,99576.28
2023-03-21T20:32:16.679Z,99587.09
2023-03-21T20:34:46.113Z,99588.50
2023-03-21T20:37:14.324Z,99581.56
2023-03-21T20:39:42.643Z,99592.63
2023-03-21T20:42:11.714Z,99580.91
2023-03-21T20:44:57.275Z,99583.88
2023-03-21T20:47:25.972Z,99589.31
2023-03-21T20:49:54.368Z,99580.25
2023-03-21T20:55:11.517Z,99575.16
2023-03-21T20:57:41.080Z,99568.38
2023-03-21T21:00:13.814Z,99575.47
2023-03-21T21:02:42.882Z,99576.63
2023-03-21T21:05:25.298Z,99574.47
2023-03-21T21:07:56.451Z,99566.56
2023-03-21T21:10:24.603Z,99560.44
2023-03-21T21:12:54.832Z,99563.91
2023-03-21T21:15:22.533Z,99568.22
2023-03-21T21:18:05.473Z,99560.44
2023-03-21T21:20:34.825Z,99555.31
2023-03-21T21:23:02.769Z,99548.69
2023-03-21T21:25:33.880Z,99557.94
2023-03-21T21:28:03.112Z,99567.50
2023-03-21T21:30:31.673Z,99555.28
2023-03-21T21:33:00.613Z,99559.59
2023-03-21T21:35:28.335Z,99555.94
2023-03-21T21:37:56.004Z,99553.28
2023-03-21T21:42:29.360Z,99552.94
2023-03-21T21:44:57.071Z,99552.63
2023-03-21T21:47:24.808Z,99556.88
2023-03-21T21:49:52.417Z,99555.09
2023-03-21T21:52:22.183Z,99560.03
2023-03-21T21:54:51.536Z,99561.50
2023-03-21T21:57:20.152Z,99564.19
2023-03-21T21:59:53.914Z,99563.19
2023-03-21T22:02:25.434Z,99554.59
2023-03-21T22:04:55.695Z,99555.06
2023-03-21T22:07:25.099Z,99551.06
2023-03-21T22:09:52.886Z,99562.00
2023-03-21T22:12:20.743Z,99562.16
2023-03-21T22:14:49.794Z,99558.84
2023-03-21T22:17:18.032Z,99562.00
2023-03-21T22:19:58.888Z,99558.53
2023-03-21T22:22:32.366Z,99566.63
2023-03-21T22:25:00.020Z,99557.25
2023-03-21T22:27:27.687Z,99556.25
2023-03-21T22:29:56.899Z,99550.66
2023-03-21T22:32:24.550Z,99552.78
2023-03-21T22:34:52.235Z,99553.97
2023-03-21T22:37:19.849Z,99561.56
2023-03-21T22:39:47.459Z,99563.59
2023-03-21T22:42:15.472Z,99559.31
2023-03-21T22:44:43.464Z,99553.66
2023-03-21T22:47:12.590Z,99544.38
2023-03-21T22:49:42.503Z,99548.16
2023-03-21T22:52:11.372Z,99540.25
2023-03-21T22:54:39.238Z,99542.75
2023-03-21T22:57:08.584Z,99539.78
2023-03-21T22:59:36.222Z,99543.41
2023-03-21T23:02:03.895Z,99554.34
2023-03-21T23:04:33.208Z,99550.19
2023-03-21T23:07:01.201Z,99546.06
2023-03-21T23:09:29.368Z,99547.41
2023-03-21T23:11:57.170Z,99542.47
2023-03-21T23:14:25.519Z,99556.81
2023-03-21T23:16:54.979Z,99558.16
2023-03-21T23:19:25.322Z,99550.25
2023-03-21T23:21:55.751Z,99548.41
2023-03-21T23:24:24.554Z,99545.59
2023-03-21T23:26:52.288Z,99553.38
2023-03-21T23:29:20.010Z,99545.44
2023-03-21T23:31:47.980Z,99545.25
2023-03-21T23:34:15.786Z,99547.25
2023-03-21T23:36:43.762Z,99547.88
2023-03-21T23:39:12.955Z,99552.50
2023-03-21T23:41:42.895Z,99549.84
2023-03-21T23:44:10.688Z,99546.72
2023-03-21T23:46:38.498Z,99552.66
2023-03-21T23:49:06.499Z,99544.19
2023-03-21T23:51:34.182Z,99541.44
2023-03-21T23:54:01.899Z,99544.06
2023-03-21T23:56:31.978Z,99546.88
2023-03-21T23:58:59.882Z,99535.81
